createdAt,value
2022-10-16T00:01:21.910Z,0.88
2022-10-16T00:03:49.295Z,1.00
2022-10-16T00:06:17.837Z,0.90
2022-10-16T00:08:45.529Z,1.25
2022-10-16T00:11:16.599Z,1.40
2022-10-16T00:13:44.753Z,0.98
2022-10-16T00:16:12.643Z,1.27
2022-10-16T00:18:40.018Z,1.02
2022-10-16T00:21:13.113Z,0.90
2022-10-16T00:23:40.422Z,0.80
2022-10-16T00:26:09.981Z,1.00
2022-10-16T00:28:37.234Z,1.02
2022-10-16T00:31:09.117Z,1.00
2022-10-16T00:33:36.942Z,0.88
2022-10-16T00:36:05.138Z,0.93
2022-10-16T00:38:32.325Z,0.95
2022-10-16T00:40:59.819Z,0.77
2022-10-16T00:43:50.445Z,0.70
2022-10-16T00:46:49.689Z,1.10
2022-10-16T00:49:20.063Z,0.90
2022-10-16T00:51:50.261Z,1.20
2022-10-16T00:54:29.248Z,1.15
2022-10-16T00:56:59.109Z,1.00
2022-10-16T00:59:37.204Z,1.15
2022-10-16T01:02:06.133Z,0.75
2022-10-16T01:04:37.785Z,1.00
2022-10-16T01:07:28.641Z,0.70
2022-10-16T01:10:18.044Z,1.00
2022-10-16T01:13:17.011Z,1.02
2022-10-16T01:15:50.827Z,0.82
2022-10-16T01:18:43.808Z,1.10
2022-10-16T01:21:15.967Z,1.00
2022-10-16T01:23:48.557Z,0.80
2022-10-16T01:26:28.652Z,0.90
2022-10-16T01:29:22.110Z,1.23
2022-10-16T01:32:14.146Z,1.00
2022-10-16T01:34:59.927Z,0.63
2022-10-16T01:37:36.297Z,0.88
2022-10-16T01:40:07.115Z,1.10
2022-10-16T01:42:39.017Z,0.63
2022-10-16T01:45:08.755Z,1.05
2022-10-16T01:47:37.423Z,1.00
2022-10-16T01:50:06.441Z,0.88
2022-10-16T01:52:37.414Z,1.10
2022-10-16T01:55:08.126Z,0.88
2022-10-16T01:57:39.910Z,0.97
2022-10-16T02:00:11.239Z,1.92
2022-10-16T02:02:45.358Z,1.08
2022-10-16T02:07:46.790Z,0.93
2022-10-16T02:10:13.557Z,1.45
2022-10-16T02:12:44.289Z,1.00
2022-10-16T02:15:11.045Z,0.93
2022-10-16T02:17:37.799Z,1.15
2022-10-16T02:20:05.868Z,1.23
2022-10-16T02:22:40.446Z,0.90
2022-10-16T02:25:27.332Z,1.00
2022-10-16T02:28:09.617Z,1.08
2022-10-16T02:30:39.201Z,1.40
2022-10-16T02:33:10.518Z,1.25
2022-10-16T02:35:38.732Z,1.00
2022-10-16T02:38:06.377Z,1.27
2022-10-16T02:40:33.277Z,1.20
2022-10-16T02:43:00.327Z,1.20
2022-10-16T02:45:27.832Z,1.00
2022-10-16T02:47:54.513Z,0.80
2022-10-16T02:50:21.310Z,1.00
2022-10-16T02:52:47.990Z,1.10
2022-10-16T02:55:14.818Z,1.13
2022-10-16T02:57:41.571Z,0.90
2022-10-16T03:00:10.899Z,0.90
2022-10-16T03:02:37.622Z,1.10
2022-10-16T03:05:04.790Z,1.10
2022-10-16T03:07:31.500Z,1.15
2022-10-16T03:10:01.076Z,0.85
2022-10-16T03:12:28.988Z,0.98
2022-10-16T03:14:57.608Z,0.73
2022-10-16T03:17:25.444Z,0.98
2022-10-16T03:19:52.797Z,1.40
2022-10-16T03:22:19.677Z,0.80
2022-10-16T03:24:46.673Z,0.88
2022-10-16T03:27:13.414Z,1.00
2022-10-16T03:29:40.248Z,0.90
2022-10-16T03:32:07.016Z,1.13
2022-10-16T03:34:33.895Z,0.95
2022-10-16T03:37:00.778Z,0.90
2022-10-16T03:39:28.263Z,1.10
2022-10-16T03:41:55.008Z,1.30
2022-10-16T03:44:22.636Z,1.08
2022-10-16T03:46:50.193Z,1.00
2022-10-16T03:49:16.927Z,1.30
2022-10-16T03:51:43.655Z,1.67
2022-10-16T03:54:11.600Z,1.13
2022-10-16T03:56:38.284Z,1.90
2022-10-16T03:59:05.445Z,1.20
2022-10-16T04:01:32.306Z,0.93
2022-10-16T04:03:59.110Z,1.52
2022-10-16T04:06:25.782Z,1.10
2022-10-16T04:08:52.642Z,0.93
2022-10-16T04:11:19.655Z,0.82
2022-10-16T04:13:46.467Z,0.90
2022-10-16T04:16:13.172Z,1.08
2022-10-16T04:18:40.071Z,1.10
2022-10-16T04:21:07.681Z,1.00
2022-10-16T04:23:34.724Z,1.20
2022-10-16T04:26:01.633Z,1.42
2022-10-16T04:28:28.605Z,1.20
2022-10-16T04:30:55.433Z,1.00
2022-10-16T04:33:22.234Z,0.90
2022-10-16T04:35:48.989Z,1.17
2022-10-16T04:38:15.758Z,1.20
2022-10-16T04:40:43.645Z,0.90
2022-10-16T04:43:10.654Z,1.02
2022-10-16T04:45:37.408Z,0.93
2022-10-16T04:48:04.282Z,1.08
2022-10-16T04:50:31.089Z,0.90
2022-10-16T04:53:07.432Z,1.00
2022-10-16T04:55:34.191Z,1.10
2022-10-16T04:58:00.885Z,0.98
2022-10-16T05:00:27.917Z,1.10
2022-10-16T05:02:54.671Z,1.10
2022-10-16T05:05:21.690Z,1.40
2022-10-16T05:07:50.565Z,1.10
2022-10-16T05:10:17.786Z,1.20
2022-10-16T05:12:44.712Z,1.00
2022-10-16T05:15:11.708Z,1.02
2022-10-16T05:17:42.393Z,1.30
2022-10-16T05:20:12.164Z,1.13
2022-10-16T05:22:39.401Z,1.25
2022-10-16T05:25:06.529Z,1.00
2022-10-16T05:27:33.202Z,0.90
2022-10-16T05:29:59.990Z,1.27
2022-10-16T05:32:26.749Z,1.50
2022-10-16T05:34:53.571Z,1.40
2022-10-16T05:37:20.607Z,1.27
2022-10-16T05:39:47.597Z,0.93
2022-10-16T05:42:14.329Z,1.30
2022-10-16T05:44:41.224Z,1.10
2022-10-16T05:47:08.071Z,1.25
2022-10-16T05:49:37.854Z,1.95
2022-10-16T05:52:07.481Z,1.15
2022-10-16T05:54:34.260Z,1.20
2022-10-16T05:57:01.054Z,1.10
2022-10-16T05:59:27.990Z,0.93
2022-10-16T06:01:54.748Z,1.02
2022-10-16T06:04:21.489Z,1.25
2022-10-16T06:06:48.296Z,1.00
2022-10-16T06:09:15.457Z,1.33
2022-10-16T06:11:42.659Z,1.50
2022-10-16T06:14:09.889Z,2.25
2022-10-16T06:16:37.895Z,2.65
2022-10-16T06:19:10.256Z,3.63
2022-10-16T06:21:37.425Z,2.40
2022-10-16T06:24:04.550Z,4.20
2022-10-16T06:26:32.660Z,3.50
2022-10-16T06:29:00.945Z,2.67
2022-10-16T06:31:31.253Z,2.10
2022-10-16T06:33:58.749Z,2.13
2022-10-16T06:36:26.173Z,1.80
2022-10-16T06:38:53.565Z,2.00
2022-10-16T06:41:22.407Z,2.30
2022-10-16T06:43:49.918Z,2.30
2022-10-16T06:46:20.754Z,2.60
2022-10-16T06:48:47.921Z,1.88
2022-10-16T06:51:20.264Z,2.00
2022-10-16T06:54:05.026Z,2.00
2022-10-16T06:56:33.454Z,1.50
2022-10-16T06:59:01.270Z,1.85
2022-10-16T07:01:28.735Z,2.08
2022-10-16T07:03:55.482Z,1.75
2022-10-16T07:06:27.758Z,1.70
2022-10-16T07:08:54.970Z,1.45
2022-10-16T07:11:23.922Z,1.45
2022-10-16T07:13:55.059Z,1.40
2022-10-16T07:16:29.155Z,1.73
2022-10-16T07:19:00.581Z,1.90
2022-10-16T07:21:36.676Z,1.85
2022-10-16T07:24:08.668Z,1.98
2022-10-16T07:29:04.554Z,1.55
2022-10-16T07:31:31.548Z,1.70
2022-10-16T07:33:59.956Z,1.85
2022-10-16T07:36:26.807Z,1.30
2022-10-16T07:38:55.647Z,1.40
2022-10-16T07:41:25.770Z,2.03
2022-10-16T07:43:53.861Z,2.22
2022-10-16T07:46:22.667Z,4.10
2022-10-16T07:48:50.252Z,8.05
2022-10-16T07:51:19.569Z,6.18
2022-10-16T07:53:46.815Z,4.38
2022-10-16T07:56:14.363Z,4.45
2022-10-16T07:58:41.547Z,3.67
2022-10-16T08:01:11.367Z,3.45
2022-10-16T08:03:38.284Z,3.10
2022-10-16T08:06:05.732Z,3.05
2022-10-16T08:08:32.591Z,3.13
2022-10-16T08:10:59.343Z,3.38
2022-10-16T08:13:27.386Z,3.20
2022-10-16T08:15:55.420Z,3.33
2022-10-16T08:18:22.473Z,3.00
2022-10-16T08:20:55.554Z,2.85
2022-10-16T08:23:22.246Z,2.70
2022-10-16T08:25:49.008Z,3.08
2022-10-16T08:28:16.642Z,2.97
2022-10-16T08:30:43.466Z,2.97
2022-10-16T08:33:10.184Z,2.33
2022-10-16T08:35:37.054Z,2.60
2022-10-16T08:38:07.948Z,2.28
2022-10-16T08:40:37.927Z,3.10
2022-10-16T08:43:24.377Z,3.03
2022-10-16T08:46:02.525Z,3.20
2022-10-16T08:48:33.302Z,3.13
2022-10-16T08:51:03.977Z,3.30
2022-10-16T08:53:47.619Z,4.80
2022-10-16T08:56:14.321Z,7.15
2022-10-16T08:58:41.161Z,5.18
2022-10-16T09:01:14.907Z,3.72
2022-10-16T09:04:08.515Z,4.00
2022-10-16T09:06:55.463Z,3.88
2022-10-16T09:09:50.395Z,3.15
2022-10-16T09:12:39.684Z,3.97
2022-10-16T09:15:25.630Z,3.60
2022-10-16T09:18:02.866Z,4.13
2022-10-16T09:20:35.505Z,2.63
2022-10-16T09:23:19.538Z,4.03
2022-10-16T09:25:48.717Z,3.55
2022-10-16T09:28:17.183Z,3.17
2022-10-16T09:30:44.321Z,3.15
2022-10-16T09:33:12.872Z,3.15
2022-10-16T09:35:49.747Z,2.90
2022-10-16T09:38:27.275Z,2.80
2022-10-16T09:40:59.221Z,2.78
2022-10-16T09:43:55.040Z,3.25
2022-10-16T09:46:33.977Z,3.08
2022-10-16T09:49:23.313Z,3.55
2022-10-16T09:51:50.349Z,3.40
2022-10-16T09:54:20.318Z,2.95
2022-10-16T09:56:50.213Z,3.80
2022-10-16T09:59:18.131Z,4.50
2022-10-16T10:01:51.722Z,2.72
2022-10-16T10:04:23.808Z,3.05
2022-10-16T10:06:58.293Z,2.65
2022-10-16T10:09:31.937Z,2.95
2022-10-16T10:12:00.013Z,2.60
2022-10-16T10:14:31.419Z,1.85
2022-10-16T10:17:07.281Z,1.80
2022-10-16T10:19:47.205Z,2.20
2022-10-16T10:22:32.277Z,1.90
2022-10-16T10:25:14.408Z,1.30
2022-10-16T10:27:44.119Z,1.35
2022-10-16T10:30:23.656Z,1.25
2022-10-16T10:33:19.367Z,1.40
2022-10-16T10:36:25.355Z,1.00
2022-10-16T10:39:17.978Z,1.17
2022-10-16T10:42:00.344Z,0.90
2022-10-16T10:44:56.461Z,1.20
2022-10-16T10:47:41.344Z,1.00
2022-10-16T10:50:13.552Z,1.70
2022-10-16T10:52:56.642Z,1.17
2022-10-16T10:55:34.588Z,1.27
2022-10-16T10:58:23.037Z,1.50
2022-10-16T11:01:02.107Z,1.10
2022-10-16T11:03:43.873Z,1.10
2022-10-16T11:06:25.303Z,1.30
2022-10-16T11:09:01.418Z,1.20
2022-10-16T11:11:36.654Z,1.30
2022-10-16T11:14:35.558Z,1.35
2022-10-16T11:17:28.178Z,1.40
2022-10-16T11:20:04.199Z,1.33
2022-10-16T11:22:39.670Z,1.63
2022-10-16T11:25:18.645Z,1.30
2022-10-16T11:28:10.676Z,1.08
2022-10-16T11:31:01.457Z,1.25
2022-10-16T11:33:37.336Z,1.92
2022-10-16T11:36:37.612Z,1.80
2022-10-16T11:39:26.808Z,1.40
2022-10-16T11:42:17.885Z,1.10
2022-10-16T11:45:10.113Z,1.23
2022-10-16T11:47:58.278Z,1.17
2022-10-16T11:50:44.584Z,1.40
2022-10-16T11:53:23.095Z,1.08
2022-10-16T11:55:50.452Z,1.35
2022-10-16T11:58:29.947Z,1.40
2022-10-16T12:01:00.955Z,1.10
2022-10-16T12:03:38.197Z,1.25
2022-10-16T12:06:33.773Z,1.27
2022-10-16T12:09:02.316Z,1.10
2022-10-16T12:11:28.990Z,1.42
2022-10-16T12:14:34.997Z,1.30
2022-10-16T12:17:24.653Z,1.30
2022-10-16T12:20:20.969Z,1.30
2022-10-16T12:23:15.106Z,1.38
2022-10-16T12:25:47.505Z,1.23
2022-10-16T12:28:17.296Z,0.90
2022-10-16T12:30:53.320Z,0.93
2022-10-16T12:33:30.614Z,1.27
2022-10-16T12:36:00.358Z,1.13
2022-10-16T12:38:31.751Z,1.20
2022-10-16T12:41:09.628Z,1.30
2022-10-16T12:43:38.719Z,1.33
2022-10-16T12:46:10.050Z,1.30
2022-10-16T12:48:48.633Z,1.30
2022-10-16T12:51:31.651Z,1.38
2022-10-16T12:54:01.871Z,1.15
2022-10-16T12:56:34.820Z,1.30
2022-10-16T12:59:01.760Z,1.13
2022-10-16T13:01:53.627Z,1.20
2022-10-16T13:04:39.188Z,1.00
2022-10-16T13:07:27.514Z,1.20
2022-10-16T13:10:27.563Z,1.25
2022-10-16T13:13:17.491Z,1.13
2022-10-16T13:15:59.343Z,1.13
2022-10-16T13:18:34.893Z,1.13
2022-10-16T13:21:07.524Z,1.23
2022-10-16T13:23:48.790Z,1.08
2022-10-16T13:26:15.828Z,1.15
2022-10-16T13:28:43.186Z,1.35
2022-10-16T13:31:39.279Z,1.30
2022-10-16T13:34:07.560Z,0.98
2022-10-16T13:36:51.283Z,1.30
2022-10-16T13:39:30.111Z,1.20
2022-10-16T13:42:10.558Z,1.20
2022-10-16T13:44:50.305Z,1.40
2022-10-16T13:47:21.957Z,1.50
2022-10-16T13:50:01.565Z,1.40
2022-10-16T13:52:29.990Z,1.10
2022-10-16T13:55:00.930Z,1.30
2022-10-16T13:57:29.784Z,1.20
2022-10-16T13:59:57.024Z,1.52
2022-10-16T14:02:27.772Z,1.15
2022-10-16T14:04:55.694Z,1.38
2022-10-16T14:07:28.885Z,1.20
2022-10-16T14:09:58.849Z,1.10
2022-10-16T14:12:28.157Z,1.20
2022-10-16T14:14:58.327Z,0.90
2022-10-16T14:17:30.973Z,1.15
2022-10-16T14:20:02.522Z,1.10
2022-10-16T14:22:42.133Z,0.93
2022-10-16T14:25:35.149Z,1.40
2022-10-16T14:28:09.486Z,1.00
2022-10-16T14:30:37.620Z,1.05
2022-10-16T14:33:22.623Z,1.05
2022-10-16T14:36:04.564Z,0.93
2022-10-16T14:38:32.638Z,1.10
2022-10-16T14:41:00.849Z,0.82
2022-10-16T14:43:30.513Z,0.80
2022-10-16T14:45:58.608Z,1.02
2022-10-16T14:48:25.985Z,1.00
2022-10-16T14:50:52.771Z,0.90
2022-10-16T14:53:19.625Z,0.88
2022-10-16T14:55:46.762Z,0.88
2022-10-16T14:58:22.425Z,0.90
2022-10-16T15:00:50.039Z,0.80
2022-10-16T15:03:17.837Z,0.93
2022-10-16T15:05:45.012Z,0.80
2022-10-16T15:08:13.362Z,0.90
2022-10-16T15:10:44.245Z,0.80
2022-10-16T15:13:14.676Z,1.23
2022-10-16T15:15:46.914Z,1.17
2022-10-16T15:18:16.303Z,0.70
2022-10-16T15:20:43.531Z,1.10
2022-10-16T15:23:17.846Z,0.93
2022-10-16T15:25:52.691Z,0.82
2022-10-16T15:28:20.996Z,0.90
2022-10-16T15:30:51.374Z,1.38
2022-10-16T15:33:23.015Z,1.10
2022-10-16T15:35:51.774Z,0.90
2022-10-16T15:38:20.928Z,1.10
2022-10-16T15:40:49.736Z,0.80
2022-10-16T15:43:16.981Z,0.70
2022-10-16T15:45:44.101Z,0.95
2022-10-16T15:48:14.683Z,1.20
2022-10-16T15:53:11.289Z,1.00
2022-10-16T15:55:38.890Z,0.93
2022-10-16T15:58:06.549Z,0.95
2022-10-16T16:00:33.830Z,0.95
2022-10-16T16:03:00.777Z,1.02
2022-10-16T16:05:28.547Z,1.13
2022-10-16T16:07:55.485Z,1.27
2022-10-16T16:10:22.576Z,0.98
2022-10-16T16:12:53.838Z,0.98
2022-10-16T16:17:50.263Z,1.48
2022-10-16T16:20:17.529Z,1.23
2022-10-16T16:22:44.535Z,1.10
2022-10-16T16:25:11.597Z,1.00
2022-10-16T16:27:39.502Z,1.02
2022-10-16T16:30:16.758Z,1.20
2022-10-16T16:32:47.039Z,1.00
2022-10-16T16:35:14.038Z,0.93
2022-10-16T16:37:41.057Z,1.27
2022-10-16T16:40:08.240Z,0.85
2022-10-16T16:42:35.057Z,0.88
2022-10-16T16:45:01.875Z,1.15
2022-10-16T16:47:29.113Z,0.90
2022-10-16T16:49:56.293Z,0.90
2022-10-16T16:52:23.344Z,0.98
2022-10-16T16:54:52.930Z,1.30
2022-10-16T16:57:21.250Z,1.02
2022-10-16T16:59:51.036Z,1.30
2022-10-16T17:02:18.134Z,1.20
2022-10-16T17:04:45.010Z,1.60
2022-10-16T17:07:11.782Z,1.30
2022-10-16T17:09:38.684Z,1.40
2022-10-16T17:12:05.631Z,1.00
2022-10-16T17:14:32.964Z,1.60
2022-10-16T17:16:59.935Z,1.10
2022-10-16T17:19:26.868Z,0.90
2022-10-16T17:21:54.024Z,1.20
2022-10-16T17:24:21.591Z,1.90
2022-10-16T17:26:49.466Z,1.73
2022-10-16T17:29:18.568Z,1.20
2022-10-16T17:31:45.525Z,1.10
2022-10-16T17:34:12.761Z,1.25
2022-10-16T17:36:43.841Z,1.08
2022-10-16T17:39:14.023Z,1.25
2022-10-16T17:41:41.167Z,1.35
2022-10-16T17:44:08.288Z,1.30
2022-10-16T17:46:38.580Z,1.40
2022-10-16T17:49:09.446Z,1.98
2022-10-16T17:51:36.591Z,1.25
2022-10-16T17:54:03.491Z,0.90
2022-10-16T17:56:31.277Z,1.30
2022-10-16T17:59:00.371Z,1.50
2022-10-16T18:01:36.768Z,1.05
2022-10-16T18:04:09.616Z,2.85
2022-10-16T18:06:37.092Z,2.40
2022-10-16T18:09:06.040Z,1.42
2022-10-16T18:11:33.038Z,1.30
2022-10-16T18:14:00.243Z,1.33
2022-10-16T18:16:29.215Z,2.78
2022-10-16T18:18:57.423Z,1.35
2022-10-16T18:21:28.740Z,1.52
2022-10-16T18:23:56.089Z,1.48
2022-10-16T18:26:23.038Z,1.30
2022-10-16T18:28:53.557Z,1.48
2022-10-16T18:31:21.345Z,1.30
2022-10-16T18:33:50.251Z,0.93
2022-10-16T18:36:20.502Z,1.00
2022-10-16T18:38:47.685Z,0.95
2022-10-16T18:41:14.754Z,1.77
2022-10-16T18:43:41.561Z,0.90
2022-10-16T18:46:12.026Z,1.08
2022-10-16T18:48:39.847Z,2.05
2022-10-16T18:51:20.350Z,1.00
2022-10-16T18:53:50.095Z,1.45
2022-10-16T18:56:18.465Z,1.30
2022-10-16T18:58:48.450Z,1.13
2022-10-16T19:01:20.831Z,1.20
2022-10-16T19:03:48.674Z,0.90
2022-10-16T19:06:16.997Z,1.42
2022-10-16T19:08:44.380Z,1.45
2022-10-16T19:11:14.851Z,1.40
2022-10-16T19:13:43.012Z,1.05
2022-10-16T19:16:21.205Z,1.00
2022-10-16T19:18:54.483Z,1.00
2022-10-16T19:21:22.350Z,1.17
2022-10-16T19:23:57.255Z,0.70
2022-10-16T19:26:24.887Z,1.25
2022-10-16T19:28:53.763Z,1.25
2022-10-16T19:31:24.848Z,1.02
2022-10-16T19:33:53.801Z,1.48
2022-10-16T19:36:27.206Z,1.38
2022-10-16T19:39:03.321Z,1.00
2022-10-16T19:41:31.423Z,1.27
2022-10-16T19:44:06.766Z,1.10
2022-10-16T19:46:34.462Z,1.30
2022-10-16T19:49:04.616Z,1.35
2022-10-16T19:51:31.924Z,1.10
2022-10-16T19:54:04.636Z,1.85
2022-10-16T19:56:32.390Z,1.33
2022-10-16T19:59:00.485Z,1.88
2022-10-16T20:01:29.209Z,1.83
2022-10-16T20:03:56.846Z,1.35
2022-10-16T20:06:24.666Z,1.30
2022-10-16T20:08:53.029Z,1.90
2022-10-16T20:11:28.627Z,1.50
2022-10-16T20:13:55.890Z,2.13
2022-10-16T20:16:23.406Z,1.42
2022-10-16T20:18:51.423Z,1.48
2022-10-16T20:21:24.302Z,2.00
2022-10-16T20:23:51.680Z,1.67
2022-10-16T20:26:20.556Z,2.00
2022-10-16T20:28:47.701Z,1.88
2022-10-16T20:31:18.248Z,2.10
2022-10-16T20:33:45.229Z,1.73
2022-10-16T20:36:14.312Z,1.80
2022-10-16T20:38:42.291Z,1.73
2022-10-16T20:41:10.122Z,1.70
2022-10-16T20:43:40.850Z,2.08
2022-10-16T20:46:13.274Z,1.80
2022-10-16T20:48:44.132Z,2.33
2022-10-16T20:51:16.071Z,1.70
2022-10-16T20:53:44.081Z,2.05
2022-10-16T20:56:12.620Z,1.98
2022-10-16T20:58:40.452Z,1.95
2022-10-16T21:01:09.381Z,2.00
2022-10-16T21:03:37.582Z,2.38
2022-10-16T21:06:09.351Z,1.98
2022-10-16T21:08:42.210Z,2.50
2022-10-16T21:11:23.236Z,2.75
2022-10-16T21:13:52.956Z,2.25
2022-10-16T21:16:20.660Z,4.45
2022-10-16T21:18:48.343Z,2.92
2022-10-16T21:21:27.461Z,2.13
2022-10-16T21:23:55.926Z,2.67
2022-10-16T21:26:26.195Z,2.50
2022-10-16T21:28:58.353Z,2.35
2022-10-16T21:31:25.407Z,2.20
2022-10-16T21:33:52.969Z,2.42
2022-10-16T21:36:23.080Z,3.05
2022-10-16T21:38:50.095Z,2.42
2022-10-16T21:41:21.245Z,3.42
2022-10-16T21:43:48.699Z,2.80
2022-10-16T21:46:17.184Z,2.70
2022-10-16T21:48:43.991Z,2.75
2022-10-16T21:51:11.914Z,2.63
2022-10-16T21:53:38.984Z,2.53
2022-10-16T21:56:12.775Z,2.53
2022-10-16T21:58:39.529Z,2.92
2022-10-16T22:01:08.080Z,3.08
2022-10-16T22:03:34.881Z,2.50
2022-10-16T22:06:06.688Z,2.20
2022-10-16T22:08:35.564Z,2.90
2022-10-16T22:11:04.495Z,2.40
2022-10-16T22:13:31.378Z,2.28
2022-10-16T22:15:58.053Z,2.65
2022-10-16T22:18:24.917Z,2.20
2022-10-16T22:20:51.611Z,2.00
2022-10-16T22:23:18.428Z,2.50
2022-10-16T22:25:45.221Z,2.03
2022-10-16T22:28:12.151Z,2.08
2022-10-16T22:30:40.121Z,2.35
2022-10-16T22:33:07.334Z,2.05
2022-10-16T22:35:38.639Z,2.30
2022-10-16T22:38:06.561Z,2.22
2022-10-16T22:40:37.638Z,2.40
2022-10-16T22:43:05.872Z,2.38
2022-10-16T22:45:34.634Z,1.95
2022-10-16T22:48:01.936Z,2.20
2022-10-16T22:50:29.011Z,2.30
2022-10-16T22:52:56.306Z,2.85
2022-10-16T22:55:23.285Z,2.47
2022-10-16T22:57:50.017Z,1.83
2022-10-16T23:00:19.467Z,2.30
2022-10-16T23:02:46.555Z,2.03
2022-10-16T23:05:13.349Z,2.20
2022-10-16T23:07:40.115Z,2.15
2022-10-16T23:10:08.599Z,2.20
2022-10-16T23:12:36.547Z,2.33
2022-10-16T23:15:04.039Z,2.25
2022-10-16T23:17:30.740Z,2.00
2022-10-16T23:19:57.474Z,1.70
2022-10-16T23:22:24.391Z,2.13
2022-10-16T23:24:51.179Z,2.25
2022-10-16T23:27:17.859Z,2.30
2022-10-16T23:29:44.521Z,1.83
2022-10-16T23:32:11.879Z,2.17
2022-10-16T23:34:38.677Z,1.73
2022-10-16T23:37:06.560Z,2.72
2022-10-16T23:39:33.533Z,1.75
2022-10-16T23:42:00.251Z,2.22
2022-10-16T23:44:26.925Z,1.70
2022-10-16T23:46:53.630Z,2.25
2022-10-16T23:49:20.437Z,2.25
2022-10-16T23:51:47.125Z,2.22
2022-10-16T23:54:13.897Z,2.47
2022-10-16T23:56:40.641Z,2.42
2022-10-16T23:59:07.454Z,1.98
